Time;durP1;ratioP1;P1;durP2;ratioP2;P2;SDS_P1;SDS_P2;PMS_P1;PMS_P2;Temp;Humidity;BMP_temperature;BMP_pressure;BME280_temperature;BME280_humidity;BME280_pressure;Samples;Min_cycle;Max_cycle;Signal;HPM_P1;HPM_P2
2023/09/10 00:01:19;;;;;;;10.90;8.30;;;;;;;11.71;72.00;101124.42;88954;275;137498;-72
2023/09/10 00:03:21;;;;;;;11.70;9.10;;;;;;;11.74;71.84;101127.61;88920;280;24971;-70
2023/09/10 00:05:23;;;;;;;10.50;8.30;;;;;;;11.77;71.71;101127.97;88781;281;136829;-74
2023/09/10 00:07:25;;;;;;;12.10;9.00;;;;;;;11.76;71.91;101128.96;88940;281;22886;-73
2023/09/10 00:09:27;;;;;;;14.30;9.60;;;;;;;11.74;71.75;101128.23;88864;281;136741;-75
2023/09/10 00:11:29;;;;;;;11.80;8.60;;;;;;;11.70;71.82;101130.38;88439;284;22693;-72
2023/09/10 00:13:31;;;;;;;11.50;8.10;;;;;;;11.68;71.92;101131.48;89011;278;137741;-74
2023/09/10 00:15:33;;;;;;;10.90;8.30;;;;;;;11.64;71.92;101131.68;88878;284;25096;-74
2023/09/10 00:17:35;;;;;;;10.80;8.40;;;;;;;11.57;72.29;101135.62;88272;283;137322;-72
2023/09/10 00:19:37;;;;;;;9.90;8.40;;;;;;;11.50;72.53;101133.23;88541;279;24032;-76
2023/09/10 00:21:39;;;;;;;11.60;8.40;;;;;;;11.45;72.86;101136.08;88420;276;138817;-74
2023/09/10 00:23:41;;;;;;;11.80;8.00;;;;;;;11.41;73.08;101136.45;88918;281;22596;-72
2023/09/10 00:25:43;;;;;;;12.00;8.80;;;;;;;11.39;73.31;101138.79;88338;281;136329;-72
2023/09/10 00:27:45;;;;;;;9.40;7.90;;;;;;;11.36;73.49;101137.46;88221;282;22875;-73
2023/09/10 00:29:47;;;;;;;12.80;8.90;;;;;;;11.32;73.64;101139.05;88440;278;136246;-76
2023/09/10 00:31:49;;;;;;;10.80;8.50;;;;;;;11.31;73.85;101151.03;89007;275;25060;-74
2023/09/10 00:33:51;;;;;;;13.60;9.80;;;;;;;11.27;74.05;101149.67;88784;275;136879;-73
2023/09/10 00:35:53;;;;;;;12.00;8.40;;;;;;;11.23;74.08;101149.59;88382;283;22530;-75
2023/09/10 00:37:54;;;;;;;11.40;8.70;;;;;;;11.16;74.41;101148.79;88385;281;136141;-72
2023/09/10 00:39:58;;;;;;;10.40;8.20;;;;;;;11.12;74.70;101150.70;88357;274;22826;-73
2023/09/10 00:42:00;;;;;;;9.40;7.80;;;;;;;11.07;74.86;101152.42;88418;278;136596;-70
2023/09/10 00:44:02;;;;;;;12.30;8.10;;;;;;;11.06;75.06;101151.36;88633;281;25080;-70
2023/09/10 00:46:06;;;;;;;15.20;8.00;;;;;;;11.03;75.38;101152.58;88811;281;22530;-74
2023/09/10 00:48:07;;;;;;;12.20;10.10;;;;;;;11.01;75.47;101151.70;88406;283;137673;-75
2023/09/10 00:50:10;;;;;;;10.30;8.00;;;;;;;10.97;75.53;101152.31;88524;274;22553;-74
2023/09/10 00:52:12;;;;;;;11.70;7.90;;;;;;;10.94;75.73;101155.80;88252;281;136493;-73
2023/09/10 00:54:16;;;;;;;9.30;8.30;;;;;;;10.91;75.90;101154.45;88404;283;25106;-73
2023/09/10 00:56:20;;;;;;;9.30;6.90;;;;;;;10.88;76.21;101153.87;88440;278;136436;-73
2023/09/10 00:58:22;;;;;;;10.80;8.30;;;;;;;10.84;76.37;101153.48;88436;276;24057;-72
2023/09/10 01:00:26;;;;;;;12.80;8.10;;;;;;;10.84;76.39;101154.47;88212;283;136522;-74
2023/09/10 01:02:28;;;;;;;11.00;8.00;;;;;;;10.85;76.60;101154.34;88699;282;25117;-74
2023/09/10 01:04:30;;;;;;;11.10;8.20;;;;;;;10.84;76.40;101153.36;88243;276;136190;-72
2023/09/10 01:06:32;;;;;;;8.60;7.00;;;;;;;10.83;76.41;101159.55;88498;275;22542;-73
2023/09/10 01:08:34;;;;;;;9.90;7.90;;;;;;;10.83;76.45;101157.77;88411;281;138474;-72
2023/09/10 01:11:13;;;;;;;10.80;8.20;;;;;;;10.86;76.24;101158.38;88248;275;26286;-72
2023/09/10 01:13:33;;;;;;;11.30;8.20;;;;;;;10.87;76.10;101154.71;88056;283;136836;-72
2023/09/10 01:16:16;;;;;;;14.80;7.90;;;;;;;10.85;76.36;101154.70;88848;279;24021;-73
2023/09/10 01:18:27;;;;;;;9.10;5.10;;;;;;;10.87;76.25;101150.61;88524;282;22779;-74
2023/09/10 01:20:47;;;;;;;8.10;7.30;;;;;;;10.91;76.38;101153.20;88391;279;136287;-72
2023/09/10 01:23:03;;;;;;;10.40;8.00;;;;;;;10.96;76.19;101154.21;88614;282;22550;-73
2023/09/10 01:25:06;;;;;;;14.50;7.30;;;;;;;10.98;76.10;101152.58;88358;274;607235;-72
2023/09/10 01:27:07;;;;;;;10.40;8.10;;;;;;;11.01;75.91;101152.27;88687;277;24031;-71
2023/09/10 01:29:13;;;;;;;13.20;8.00;;;;;;;11.03;75.75;101151.64;88366;281;136523;-76
2023/09/10 01:31:15;;;;;;;10.80;8.00;;;;;;;11.05;75.58;101149.85;88458;282;22525;-71
2023/09/10 01:33:35;;;;;;;9.90;8.00;;;;;;;11.05;75.47;101148.30;88193;282;136381;-73
2023/09/10 01:35:55;;;;;;;10.90;7.60;;;;;;;11.04;75.39;101150.86;88564;275;22531;-73
2023/09/10 01:38:08;;;;;;;9.80;8.00;;;;;;;11.06;75.40;101156.85;88735;281;136706;-72
2023/09/10 01:40:18;;;;;;;8.60;7.30;;;;;;;11.05;75.31;101159.16;88624;283;136907;-73
2023/09/10 01:42:22;;;;;;;10.80;8.80;;;;;;;11.00;75.18;101158.38;88921;278;22551;-73
2023/09/10 01:44:25;;;;;;;10.60;7.90;;;;;;;10.98;75.28;101159.21;88687;281;137070;-72
2023/09/10 01:46:28;;;;;;;11.40;7.90;;;;;;;10.91;75.45;101149.54;88606;282;24024;-72
2023/09/10 01:48:30;;;;;;;8.50;7.60;;;;;;;10.96;75.43;101159.45;88370;277;136025;-68
2023/09/10 01:50:32;;;;;;;9.30;8.00;;;;;;;10.89;75.61;101159.13;88447;279;23907;-68
2023/09/10 01:52:33;;;;;;;8.80;7.20;;;;;;;10.83;75.68;101162.31;88111;276;135793;-73
2023/09/10 01:54:36;;;;;;;5.20;4.70;;;;;;;10.77;76.06;101163.83;88363;275;22656;-71
2023/09/10 01:56:37;;;;;;;8.60;6.90;;;;;;;10.77;76.56;101165.59;88367;281;136218;-69
2023/09/10 01:58:39;;;;;;;9.60;6.60;;;;;;;10.77;76.47;101163.85;88539;282;22539;-77
2023/09/10 02:00:42;;;;;;;8.70;6.90;;;;;;;10.77;76.51;101162.39;88322;284;136686;-71
2023/09/10 02:02:44;;;;;;;9.30;7.00;;;;;;;10.76;76.47;101159.14;88535;284;24214;-76
2023/09/10 02:04:46;;;;;;;9.40;8.00;;;;;;;10.75;76.60;101163.23;88410;276;137044;-70
2023/09/10 02:06:49;;;;;;;10.70;7.50;;;;;;;10.72;76.64;101163.09;88407;284;25105;-70
2023/09/10 02:08:51;;;;;;;9.40;6.50;;;;;;;10.71;76.70;101164.14;88394;283;137242;-73
2023/09/10 02:10:53;;;;;;;8.30;6.70;;;;;;;10.70;77.01;101164.30;88543;275;22547;-73
2023/09/10 02:12:55;;;;;;;10.80;7.50;;;;;;;10.72;77.04;101159.36;89599;275;136324;-71
2023/09/10 02:14:58;;;;;;;11.70;7.60;;;;;;;10.72;76.97;101157.56;88503;282;22487;-71
2023/09/10 02:17:00;;;;;;;10.60;7.90;;;;;;;10.73;76.72;101158.23;88368;283;136637;-72
2023/09/10 02:19:03;;;;;;;9.00;8.00;;;;;;;10.69;76.55;101155.90;88473;282;22555;-69
2023/09/10 02:21:10;;;;;;;13.40;7.50;;;;;;;10.65;76.80;101154.58;88409;279;137590;-71
2023/09/10 02:23:11;;;;;;;8.60;6.50;;;;;;;10.61;76.96;101154.95;88465;282;25165;-69
2023/09/10 02:25:14;;;;;;;10.80;7.40;;;;;;;10.59;77.07;101156.52;88457;282;136754;-70
2023/09/10 02:27:16;;;;;;;13.80;7.20;;;;;;;10.59;76.96;101159.15;88396;275;25172;-72
2023/09/10 02:29:18;;;;;;;13.50;7.50;;;;;;;10.57;76.91;101157.99;88276;278;137190;-69
2023/09/10 02:31:22;;;;;;;11.20;7.30;;;;;;;10.53;77.19;101160.19;88449;282;22689;-70
2023/09/10 02:33:26;;;;;;;13.10;7.50;;;;;;;10.46;77.27;101159.77;88456;274;139643;-71
2023/09/10 02:35:28;;;;;;;14.70;6.90;;;;;;;10.39;77.52;101160.48;88630;281;22550;-70
2023/09/10 02:37:31;;;;;;;15.50;7.80;;;;;;;10.34;77.88;101158.20;88422;281;137045;-69
2023/09/10 02:39:32;;;;;;;14.10;8.20;;;;;;;10.28;78.00;101154.84;88330;284;23906;-70
2023/09/10 02:41:34;;;;;;;12.30;7.50;;;;;;;10.22;78.48;101152.58;88286;275;136617;-69
2023/09/10 02:43:36;;;;;;;15.10;7.70;;;;;;;10.07;78.70;101140.83;88321;282;23740;-71
2023/09/10 02:45:38;;;;;;;14.50;7.10;;;;;;;10.09;78.98;101153.33;88242;283;136387;-70
2023/09/10 02:47:40;;;;;;;15.50;7.50;;;;;;;10.03;79.48;101152.09;88607;275;26182;-71
2023/09/10 02:49:42;;;;;;;7.30;6.50;;;;;;;9.98;79.69;101156.20;88293;275;137105;-69
2023/09/10 02:51:44;;;;;;;11.30;7.30;;;;;;;9.96;79.86;101156.44;88457;282;22537;-69
2023/09/10 02:53:48;;;;;;;11.10;6.50;;;;;;;9.96;80.26;101161.00;88213;277;137321;-68
2023/09/10 02:56:00;;;;;;;10.50;6.40;;;;;;;9.92;80.36;101161.36;88680;274;25322;-71
2023/09/10 02:58:02;;;;;;;8.90;7.40;;;;;;;9.89;80.72;101162.05;88559;282;136596;-70
2023/09/10 03:00:07;;;;;;;10.90;6.90;;;;;;;9.86;80.91;101161.88;88268;283;141129;-76
2023/09/10 03:02:09;;;;;;;12.20;7.40;;;;;;;9.83;81.08;101161.34;88420;283;22545;-69
2023/09/10 03:04:11;;;;;;;11.50;7.50;;;;;;;9.78;81.18;101162.43;88467;282;137324;-68
2023/09/10 03:06:13;;;;;;;9.30;7.10;;;;;;;9.70;81.77;101157.13;88485;282;24475;-70
2023/09/10 03:08:15;;;;;;;10.30;7.60;;;;;;;9.72;81.90;101164.25;88203;283;137181;-81
2023/09/10 03:10:17;;;;;;;12.40;7.70;;;;;;;9.72;82.22;101165.52;88414;275;22767;-70
2023/09/10 03:12:25;;;;;;;7.80;7.00;;;;;;;9.71;82.35;101162.75;88365;277;136674;-68
2023/09/10 03:14:28;;;;;;;8.70;7.00;;;;;;;9.68;82.46;101163.94;88477;275;24099;-69
2023/09/10 03:16:32;;;;;;;9.50;7.50;;;;;;;9.64;82.75;101170.38;88481;279;136192;-70
2023/09/10 03:18:37;;;;;;;8.70;6.30;;;;;;;9.62;82.99;101170.64;88428;275;25259;-72
2023/09/10 03:20:39;;;;;;;10.90;7.20;;;;;;;9.62;82.94;101170.98;88277;283;135795;-69
2023/09/10 03:22:41;;;;;;;8.70;6.90;;;;;;;9.63;82.94;101171.74;88475;283;24214;-71
2023/09/10 03:24:43;;;;;;;8.80;7.20;;;;;;;9.66;83.32;101174.41;88486;277;137249;-70
2023/09/10 03:26:45;;;;;;;12.60;6.90;;;;;;;9.73;83.36;101173.77;88614;276;23946;-71
2023/09/10 03:28:47;;;;;;;10.90;6.40;;;;;;;9.81;83.13;101175.68;88437;279;137095;-70
2023/09/10 03:30:48;;;;;;;10.70;7.60;;;;;;;9.89;82.96;101176.33;88709;283;22536;-72
2023/09/10 03:32:51;;;;;;;7.60;6.40;;;;;;;9.99;83.05;101173.79;88369;283;136648;-72
2023/09/10 03:34:53;;;;;;;8.10;6.80;;;;;;;10.09;82.94;101175.34;88888;278;22530;-71
2023/09/10 03:36:56;;;;;;;9.00;6.50;;;;;;;10.15;82.57;101175.48;88435;275;136806;-71
2023/09/10 03:38:58;;;;;;;8.70;5.50;;;;;;;10.18;82.41;101172.15;88535;276;24101;-70
2023/09/10 03:41:00;;;;;;;13.30;6.80;;;;;;;10.26;82.10;101176.09;88488;275;137733;-70
2023/09/10 03:43:06;;;;;;;8.60;7.40;;;;;;;10.30;81.87;101177.45;88540;281;23719;-70
2023/09/10 03:45:09;;;;;;;10.00;7.80;;;;;;;10.32;81.32;101176.89;88458;282;136457;-70
2023/09/10 03:47:10;;;;;;;10.10;6.50;;;;;;;10.30;80.94;101177.54;88641;282;24020;-71
2023/09/10 03:49:12;;;;;;;14.20;6.50;;;;;;;10.29;80.96;101179.86;88422;275;136724;-69
2023/09/10 03:51:15;;;;;;;11.40;7.90;;;;;;;10.28;81.12;101180.78;88646;279;22531;-67
2023/09/10 03:53:18;;;;;;;8.80;6.50;;;;;;;10.39;81.71;101182.41;88524;283;136444;-73
2023/09/10 03:55:21;;;;;;;9.60;6.30;;;;;;;10.70;81.53;101177.36;88620;281;22625;-69
2023/09/10 03:57:22;;;;;;;7.00;5.80;;;;;;;11.18;80.33;101176.30;88326;283;137645;-70
2023/09/10 03:59:24;;;;;;;12.40;6.60;;;;;;;11.73;78.30;101171.61;88424;283;24183;-69
2023/09/10 04:01:29;;;;;;;;;;;;;;;12.32;75.91;101168.69;88394;282;136675;-72
2023/09/10 04:03:31;;;;;;;7.40;6.30;;;;;;;12.94;72.86;101172.79;88317;276;22557;-70
2023/09/10 04:05:33;;;;;;;8.70;7.00;;;;;;;13.55;70.16;101171.27;88271;279;136327;-71
2023/09/10 04:07:35;;;;;;;9.40;6.40;;;;;;;14.12;67.45;101170.16;88495;274;22550;-71
2023/09/10 04:09:38;;;;;;;12.10;6.00;;;;;;;14.63;64.95;101168.54;88302;281;138224;-77
2023/09/10 04:11:39;;;;;;;15.10;7.30;;;;;;;15.10;62.46;101166.30;88349;276;25233;-70
2023/09/10 04:13:41;;;;;;;10.10;7.60;;;;;;;15.60;60.74;101169.92;88312;280;137208;-73
2023/09/10 04:15:44;;;;;;;11.20;6.10;;;;;;;16.09;58.59;101167.71;88691;273;22596;-76
2023/09/10 04:17:46;;;;;;;9.60;6.60;;;;;;;16.62;56.56;101166.92;88884;275;137400;-70
2023/09/10 04:19:48;;;;;;;12.60;6.40;;;;;;;17.12;54.60;101166.95;88698;283;22619;-73
2023/09/10 04:21:50;;;;;;;10.80;6.50;;;;;;;17.62;53.32;101167.30;88292;282;137528;-74
2023/09/10 04:23:53;;;;;;;12.10;7.70;;;;;;;18.10;51.76;101165.61;88514;278;22632;-72
2023/09/10 04:25:58;;;;;;;14.40;7.40;;;;;;;18.69;50.03;101168.23;88481;280;137854;-71
2023/09/10 04:28:00;;;;;;;8.10;6.40;;;;;;;19.21;48.18;101164.59;88444;282;24238;-74
2023/09/10 04:30:02;;;;;;;6.10;5.20;;;;;;;19.70;46.29;101160.30;88363;280;135887;-80
2023/09/10 04:32:05;;;;;;;10.10;6.20;;;;;;;20.08;45.22;101158.02;88554;276;138143;-72
2023/09/10 04:34:07;;;;;;;7.10;5.00;;;;;;;20.32;44.15;101157.38;88773;282;22615;-72
2023/09/10 04:36:08;;;;;;;9.30;5.30;;;;;;;20.64;43.32;101156.52;88909;282;136139;-72
2023/09/10 04:38:13;;;;;;;8.20;5.50;;;;;;;21.03;42.44;101159.41;88765;275;22536;-72
2023/09/10 04:40:14;;;;;;;9.10;5.50;;;;;;;21.36;41.58;101146.21;88551;281;137082;-71
2023/09/10 04:42:16;;;;;;;7.20;4.80;;;;;;;21.73;40.96;101148.96;88678;276;22534;-72
2023/09/10 04:44:19;;;;;;;8.70;5.20;;;;;;;21.95;39.91;101146.91;88377;278;136453;-71
2023/09/10 04:46:21;;;;;;;5.90;5.20;;;;;;;22.02;39.13;101147.53;88261;284;22514;-72
2023/09/10 04:48:23;;;;;;;9.50;5.00;;;;;;;22.12;38.96;101148.35;88381;273;136324;-71
2023/09/10 04:50:25;;;;;;;5.70;5.20;;;;;;;22.21;38.70;101146.33;88406;281;22537;-72
2023/09/10 04:52:27;;;;;;;8.20;4.40;;;;;;;22.27;38.36;101147.22;88479;274;136155;-70
2023/09/10 04:54:29;;;;;;;6.10;4.50;;;;;;;22.32;38.18;101151.98;88372;275;22612;-74
2023/09/10 04:56:31;;;;;;;9.20;5.60;;;;;;;22.44;37.42;101148.24;88339;275;137149;-68
2023/09/10 04:58:33;;;;;;;5.60;4.80;;;;;;;22.55;37.44;101151.63;88476;283;23751;-73
2023/09/10 05:00:39;;;;;;;7.50;5.40;;;;;;;22.65;37.17;101149.21;88710;282;136004;-73
2023/09/10 05:02:41;;;;;;;6.70;4.80;;;;;;;22.75;37.08;101150.22;88841;283;22565;-76
2023/09/10 05:04:46;;;;;;;6.10;4.60;;;;;;;22.85;36.53;101152.33;88457;282;139438;-82
2023/09/10 05:06:48;;;;;;;9.00;5.00;;;;;;;22.97;36.65;101148.80;88811;283;24062;-75
2023/09/10 05:08:50;;;;;;;6.40;4.10;;;;;;;23.11;36.88;101152.11;88787;281;135976;-74
2023/09/10 05:10:52;;;;;;;6.20;4.90;;;;;;;23.27;36.06;101151.06;88806;279;22527;-74
2023/09/10 05:12:54;;;;;;;6.40;4.60;;;;;;;23.43;35.83;101152.00;88860;275;136006;-74
2023/09/10 05:14:56;;;;;;;5.00;4.50;;;;;;;23.55;35.51;101155.73;88674;282;25392;-74
2023/09/10 05:16:59;;;;;;;5.60;4.50;;;;;;;23.65;35.10;101154.52;88417;274;136112;-76
2023/09/10 05:19:01;;;;;;;6.70;4.30;;;;;;;23.80;35.60;101153.95;88766;282;25106;-74
2023/09/10 05:21:03;;;;;;;6.00;4.60;;;;;;;23.92;35.05;101157.71;88587;282;136977;-74
2023/09/10 05:23:07;;;;;;;7.60;4.60;;;;;;;23.97;34.66;101156.73;88704;276;25153;-74
2023/09/10 05:26:49;;;;;;;6.80;5.00;;;;;;;23.96;34.52;101160.27;87069;306;604357;-73
2023/09/10 05:28:51;;;;;;;4.80;4.30;;;;;;;23.99;34.34;101159.31;87823;295;136755;-73
2023/09/10 05:30:53;;;;;;;7.80;5.10;;;;;;;24.10;33.98;101155.05;87714;295;22698;-75
2023/09/10 05:32:56;;;;;;;5.30;4.80;;;;;;;24.19;33.99;101144.83;87641;287;137392;-73
2023/09/10 05:34:58;;;;;;;8.00;4.60;;;;;;;24.34;33.61;101144.91;87921;293;24051;-73
2023/09/10 05:37:00;;;;;;;4.40;3.90;;;;;;;24.43;33.54;101146.66;87811;285;136307;-75
2023/09/10 05:39:02;;;;;;;4.10;3.80;;;;;;;24.54;33.42;101145.72;88609;287;22681;-72
2023/09/10 05:41:07;;;;;;;6.90;5.00;;;;;;;24.65;33.23;101149.50;88249;280;598231;-73
2023/09/10 05:43:09;;;;;;;5.20;4.40;;;;;;;24.73;33.18;101150.48;88889;276;22988;-75
2023/09/10 05:45:11;;;;;;;4.80;4.20;;;;;;;24.77;33.30;101155.09;88753;273;135519;-82
2023/09/10 05:47:13;;;;;;;5.10;4.60;;;;;;;24.85;33.03;101156.98;88852;278;25092;-79
2023/09/10 05:49:15;;;;;;;4.70;4.30;;;;;;;24.95;33.00;101157.69;88734;277;136074;-74
2023/09/10 05:51:16;;;;;;;4.30;3.80;;;;;;;25.04;32.20;101160.36;88868;283;25137;-75
2023/09/10 05:53:19;;;;;;;9.70;3.80;;;;;;;25.14;31.96;101159.70;88671;279;135758;-74
2023/09/10 05:55:23;;;;;;;5.80;3.80;;;;;;;25.20;31.67;101160.93;88795;284;24142;-74
2023/09/10 05:57:24;;;;;;;5.20;4.00;;;;;;;25.24;31.77;101163.95;88663;277;136198;-75
2023/09/10 05:59:26;;;;;;;8.10;4.10;;;;;;;25.32;31.33;101160.55;88647;285;23865;-74
2023/09/10 06:01:28;;;;;;;6.20;3.90;;;;;;;25.36;31.31;101161.67;88807;274;135952;-74
2023/09/10 06:03:32;;;;;;;5.00;4.40;;;;;;;25.44;31.43;101160.22;88803;274;22520;-75
2023/09/10 06:05:34;;;;;;;6.90;3.90;;;;;;;25.43;31.31;101165.46;88407;274;135809;-75
2023/09/10 06:07:36;;;;;;;10.20;4.80;;;;;;;25.46;31.20;101164.87;88307;281;24208;-76
2023/09/10 06:09:38;;;;;;;4.60;4.20;;;;;;;25.47;31.42;101166.73;88589;279;136986;-75
2023/09/10 06:11:39;;;;;;;8.60;4.50;;;;;;;25.28;31.59;101168.45;88881;275;22534;-76
2023/09/10 06:13:42;;;;;;;5.40;4.80;;;;;;;25.01;31.96;101173.16;88620;278;136205;-75
2023/09/10 06:15:44;;;;;;;4.80;4.20;;;;;;;24.91;31.66;101174.09;88608;284;22533;-73
2023/09/10 06:17:46;;;;;;;6.60;4.20;;;;;;;25.01;31.49;101172.45;88565;275;135590;-71
2023/09/10 06:19:48;;;;;;;7.30;3.90;;;;;;;25.05;31.36;101174.94;88620;281;25100;-74
2023/09/10 06:21:50;;;;;;;5.20;4.20;;;;;;;25.16;31.53;101172.42;88670;276;135606;-78
2023/09/10 06:23:52;;;;;;;5.10;4.60;;;;;;;25.14;31.48;101174.16;88792;281;24034;-74
2023/09/10 06:25:54;;;;;;;5.30;4.40;;;;;;;24.93;30.89;101173.40;88949;281;135587;-75
2023/09/10 06:27:56;;;;;;;4.00;3.70;;;;;;;24.55;31.38;101175.09;89027;283;26701;-75
2023/09/10 06:29:58;;;;;;;3.20;3.00;;;;;;;24.07;31.91;101179.15;88824;277;135561;-77
2023/09/10 06:32:00;;;;;;;3.70;2.80;;;;;;;23.73;32.24;101181.88;88887;275;25163;-76
2023/09/10 06:34:04;;;;;;;3.30;2.10;;;;;;;23.63;32.28;101182.44;89199;281;22560;-75
2023/09/10 06:36:07;;;;;;;2.30;2.10;;;;;;;23.60;32.34;101179.73;88818;278;135762;-74
2023/09/10 06:38:08;;;;;;;3.00;1.90;;;;;;;23.68;32.05;101178.13;88930;274;23831;-74
2023/09/10 06:40:13;;;;;;;2.10;1.90;;;;;;;23.54;32.31;101180.69;89457;281;135910;-77
2023/09/10 06:42:15;;;;;;;;;;;;;;;23.26;32.79;101181.56;90202;280;22459;-83
2023/09/10 06:44:25;;;;;;;1.40;1.30;;;;;;;23.12;32.95;101183.92;90500;280;122648;-71
2023/09/10 06:46:26;;;;;;;2.40;1.30;;;;;;;22.98;33.15;101182.02;90646;282;22582;-72
2023/09/10 06:48:29;;;;;;;1.40;1.30;;;;;;;22.65;33.89;101170.80;90383;274;136685;-74
2023/09/10 06:50:30;;;;;;;3.10;1.30;;;;;;;22.38;34.26;101184.55;89488;281;24301;-74
2023/09/10 06:52:32;;;;;;;1.60;0.80;;;;;;;22.09;34.69;101181.04;89186;281;135565;-72
2023/09/10 06:54:34;;;;;;;0.80;0.40;;;;;;;21.97;34.48;101182.07;88734;282;21520;-72
2023/09/10 06:56:36;;;;;;;0.50;0.50;;;;;;;21.75;34.58;101180.52;88509;279;136739;-71
2023/09/10 06:58:38;;;;;;;2.00;0.50;;;;;;;21.34;35.46;101180.96;88827;282;23872;-77
2023/09/10 07:00:40;;;;;;;2.70;0.40;;;;;;;20.87;36.05;101179.22;88633;279;135995;-71
2023/09/10 07:02:42;;;;;;;4.30;0.30;;;;;;;20.40;36.81;101181.78;88757;275;22531;-72
2023/09/10 07:04:47;;;;;;;1.40;0.50;;;;;;;20.10;37.43;101185.05;88654;276;135917;-73
2023/09/10 07:06:51;;;;;;;0.80;0.50;;;;;;;19.92;37.91;101180.60;88538;276;25088;-71
2023/09/10 07:08:53;;;;;;;0.20;0.10;;;;;;;19.74;38.18;101179.02;88536;275;136080;-72
2023/09/10 07:10:57;;;;;;;2.00;0.30;;;;;;;19.55;38.39;101174.95;88547;275;22544;-72
2023/09/10 07:13:07;;;;;;;0.50;0.10;;;;;;;19.40;38.57;101174.09;88375;283;136062;-75
2023/09/10 07:15:10;;;;;;;0.30;0.20;;;;;;;19.27;38.83;101177.20;88492;275;22609;-73
2023/09/10 07:17:12;;;;;;;0.40;0.30;;;;;;;19.11;39.66;101182.77;88637;279;136475;-74
2023/09/10 07:19:15;;;;;;;0.20;0.20;;;;;;;18.94;40.18;101181.63;88600;279;24027;-71
2023/09/10 07:21:17;;;;;;;0.60;0.10;;;;;;;18.83;40.50;101182.47;88472;277;136094;-72
2023/09/10 07:23:19;;;;;;;5.20;0.20;;;;;;;18.74;40.88;101176.60;88443;274;25085;-72
2023/09/10 07:25:22;;;;;;;1.20;0.20;;;;;;;18.68;41.41;101179.64;88237;279;137096;-77
2023/09/10 07:27:24;;;;;;;0.60;0.20;;;;;;;18.57;41.41;101169.89;88974;281;24048;-74
2023/09/10 07:29:27;;;;;;;2.10;0.30;;;;;;;18.59;41.66;101178.06;88472;276;135609;-74
2023/09/10 07:31:29;;;;;;;2.20;0.30;;;;;;;18.56;42.22;101176.02;88317;280;24020;-72
2023/09/10 07:33:31;;;;;;;0.20;0.20;;;;;;;18.57;42.21;101181.52;88462;274;136144;-75
2023/09/10 07:35:33;;;;;;;0.30;0.20;;;;;;;18.51;42.29;101164.21;88626;276;23022;-72
2023/09/10 07:37:35;;;;;;;2.50;0.40;;;;;;;18.53;42.86;101190.48;88525;278;135682;-71
2023/09/10 07:39:37;;;;;;;1.90;0.20;;;;;;;18.45;42.64;101188.96;88500;274;22606;-70
2023/09/10 07:41:39;;;;;;;0.70;0.20;;;;;;;18.38;42.68;101186.67;88504;277;135996;-71
2023/09/10 07:43:41;;;;;;;0.40;0.20;;;;;;;18.32;42.75;101191.98;88504;279;23975;-71
2023/09/10 07:45:45;;;;;;;1.40;0.70;;;;;;;18.29;42.84;101186.27;88298;277;137087;-65
2023/09/10 07:47:47;;;;;;;0.50;0.50;;;;;;;18.28;43.12;101184.20;88593;279;25238;-67
2023/09/10 07:49:50;;;;;;;2.70;0.30;;;;;;;18.28;43.17;101179.80;88336;282;135717;-66
2023/09/10 07:51:53;;;;;;;2.30;0.20;;;;;;;18.31;43.32;101179.86;88294;283;25278;-72
2023/09/10 07:53:54;;;;;;;0.80;0.30;;;;;;;18.37;43.37;101176.33;88367;281;137290;-70
2023/09/10 07:55:56;;;;;;;3.20;0.20;;;;;;;18.36;43.24;101161.35;88524;281;23171;-69
2023/09/10 07:57:58;;;;;;;0.30;0.20;;;;;;;18.51;43.42;101171.82;88335;283;135430;-71
2023/09/10 08:00:01;;;;;;;0.30;0.30;;;;;;;18.55;43.31;101169.02;88264;284;22610;-70
2023/09/10 08:02:12;;;;;;;1.10;0.20;;;;;;;18.58;43.47;101167.11;88385;275;22526;-71
2023/09/10 08:04:15;;;;;;;0.50;0.20;;;;;;;18.62;43.39;101169.80;88439;280;136082;-76
2023/09/10 08:06:17;;;;;;;0.20;0.20;;;;;;;18.68;42.84;101167.50;88494;274;22600;-69
2023/09/10 08:08:19;;;;;;;1.00;0.10;;;;;;;18.72;42.64;101161.36;88385;282;137379;-69
2023/09/10 08:10:21;;;;;;;1.60;0.20;;;;;;;18.76;42.72;101151.81;88423;280;22524;-70
2023/09/10 08:12:22;;;;;;;1.60;0.10;;;;;;;18.78;42.94;101152.92;88268;279;136046;-70
2023/09/10 08:14:24;;;;;;;0.70;0.20;;;;;;;18.78;43.09;101155.33;88566;273;25178;-70
2023/09/10 08:16:26;;;;;;;0.30;0.30;;;;;;;18.75;43.11;101158.39;88485;281;137069;-71
2023/09/10 08:18:28;;;;;;;0.30;0.20;;;;;;;18.74;43.16;101150.85;88724;282;22543;-74
2023/09/10 08:20:30;;;;;;;2.00;0.10;;;;;;;18.75;43.31;101146.26;88024;276;135948;-74
2023/09/10 08:22:32;;;;;;;0.60;0.10;;;;;;;18.77;43.24;101154.67;88743;285;22598;-71
2023/09/10 08:24:35;;;;;;;0.20;0.10;;;;;;;18.77;42.53;101152.02;88814;279;135838;-69
2023/09/10 08:26:36;;;;;;;2.30;0.20;;;;;;;18.72;42.38;101153.10;88353;275;23344;-73
2023/09/10 08:28:39;;;;;;;0.30;0.20;;;;;;;18.71;42.26;101152.30;88296;273;135918;-69
2023/09/10 08:30:41;;;;;;;1.50;0.20;;;;;;;18.69;42.31;101150.30;88477;273;22827;-75
2023/09/10 08:32:45;;;;;;;2.40;0.70;;;;;;;18.68;42.40;101148.82;88330;274;136008;-70
2023/09/10 08:34:47;;;;;;;0.70;0.20;;;;;;;18.66;43.08;101143.60;88502;275;22530;-73
2023/09/10 08:36:50;;;;;;;1.10;0.40;;;;;;;18.61;43.43;101140.38;88223;280;136680;-69
2023/09/10 08:38:53;;;;;;;0.30;0.10;;;;;;;18.58;43.30;101143.67;88485;281;23747;-71
2023/09/10 08:40:57;;;;;;;0.60;0.20;;;;;;;18.60;43.34;101142.08;88381;283;136695;-71
2023/09/10 08:43:08;;;;;;;;;;;;;;;18.65;43.54;101137.46;88594;273;22919;-69
2023/09/10 08:45:11;;;;;;;0.80;0.10;;;;;;;18.68;43.58;101136.02;88592;281;122477;-68
2023/09/10 08:47:17;;;;;;;0.70;0.40;;;;;;;18.74;43.49;101143.69;88666;282;24674;-69
2023/09/10 08:49:21;;;;;;;0.50;0.20;;;;;;;18.78;43.46;101143.45;88261;283;135931;-74
2023/09/10 08:51:24;;;;;;;0.60;0.20;;;;;;;18.83;43.08;101147.13;88568;273;25198;-75
2023/09/10 08:53:27;;;;;;;0.60;0.20;;;;;;;18.89;42.96;101141.49;88415;274;136220;-75
2023/09/10 08:55:30;;;;;;;0.40;0.40;;;;;;;18.96;42.99;101132.82;88541;278;23308;-71
2023/09/10 08:57:33;;;;;;;1.10;0.30;;;;;;;19.02;43.06;101131.99;88542;277;136447;-70
2023/09/10 08:59:36;;;;;;;1.90;0.20;;;;;;;19.09;43.08;101130.46;88501;276;24096;-74
2023/09/10 09:01:39;;;;;;;1.40;0.30;;;;;;;19.15;43.01;101125.45;88740;275;136122;-69
2023/09/10 09:03:41;;;;;;;2.80;0.30;;;;;;;19.18;42.99;101122.04;88452;275;25336;-70
2023/09/10 09:05:45;;;;;;;0.20;0.20;;;;;;;19.21;43.00;101127.79;88348;279;137424;-69
2023/09/10 09:07:57;;;;;;;1.10;0.20;;;;;;;19.22;42.62;101131.39;88627;275;22537;-70
2023/09/10 09:10:02;;;;;;;0.90;0.20;;;;;;;19.19;42.55;101125.56;88403;282;136017;-76
2023/09/10 09:12:08;;;;;;;0.30;0.10;;;;;;;19.17;42.43;101124.84;88566;278;137870;-71
2023/09/10 09:14:10;;;;;;;2.10;0.20;;;;;;;19.21;42.53;101122.27;88598;278;24629;-71
2023/09/10 09:16:14;;;;;;;2.20;0.30;;;;;;;19.25;42.41;101124.00;88538;275;136486;-71
2023/09/10 09:18:18;;;;;;;0.90;0.20;;;;;;;19.27;42.40;101127.95;88773;277;25093;-70
2023/09/10 09:20:20;;;;;;;1.20;0.20;;;;;;;19.31;41.88;101125.14;88403;283;136853;-71
2023/09/10 09:22:28;;;;;;;0.40;0.20;;;;;;;19.29;41.70;101122.74;88833;282;24143;-70
2023/09/10 09:24:30;;;;;;;0.90;0.40;;;;;;;19.22;41.72;101120.13;88250;276;136250;-67
2023/09/10 09:26:35;;;;;;;3.70;0.10;;;;;;;19.16;41.90;101117.63;88452;279;22818;-67
2023/09/10 09:28:38;;;;;;;0.40;0.20;;;;;;;19.11;42.19;101115.48;88359;279;136040;-66
2023/09/10 09:30:41;;;;;;;0.40;0.20;;;;;;;19.09;42.42;101111.61;88514;275;22632;-69
2023/09/10 09:32:45;;;;;;;0.30;0.20;;;;;;;19.14;42.50;101111.79;88397;282;137228;-66
2023/09/10 09:34:48;;;;;;;1.60;0.20;;;;;;;19.20;42.54;101110.64;88524;275;27298;-67
2023/09/10 09:36:50;;;;;;;0.40;0.10;;;;;;;19.27;42.33;101105.89;88283;275;136346;-67
2023/09/10 09:38:54;;;;;;;0.30;0.20;;;;;;;19.31;42.15;101104.52;88510;282;25151;-67